sensor_id;sensor_type;location;lat;lon;timestamp;temperature;humidity
51035;DHT22;37062;52.546;13.230;2023-02-07T00:01:23;-1.00;99.90
51035;DHT22;37062;52.546;13.230;2023-02-07T00:03:52;-1.10;99.90
51035;DHT22;37062;52.546;13.230;2023-02-07T00:06:23;-1.20;99.90
51035;DHT22;37062;52.546;13.230;2023-02-07T00:08:52;-1.40;99.90
51035;DHT22;37062;52.546;13.230;2023-02-07T00:11:21;-1.60;99.90
51035;DHT22;37062;52.546;13.230;2023-02-07T00:13:52;-1.60;99.90
51035;DHT22;37062;52.546;13.230;2023-02-07T00:16:23;-1.60;99.90
51035;DHT22;37062;52.546;13.230;2023-02-07T00:18:52;-1.60;99.90
51035;DHT22;37062;52.546;13.230;2023-02-07T00:21:21;-1.50;99.90
51035;DHT22;37062;52.546;13.230;2023-02-07T00:23:51;-1.40;99.90
51035;DHT22;37062;52.546;13.230;2023-02-07T00:26:20;-1.40;99.90
51035;DHT22;37062;52.546;13.230;2023-02-07T00:28:50;-1.40;99.90
51035;DHT22;37062;52.546;13.230;2023-02-07T00:31:20;-1.40;99.90
51035;DHT22;37062;52.546;13.230;2023-02-07T00:33:50;-1.40;99.90
51035;DHT22;37062;52.546;13.230;2023-02-07T00:36:22;-1.40;99.90
51035;DHT22;37062;52.546;13.230;2023-02-07T00:38:55;-1.40;99.90
51035;DHT22;37062;52.546;13.230;2023-02-07T00:41:24;-1.40;99.90
51035;DHT22;37062;52.546;13.230;2023-02-07T00:43:52;-1.40;99.90
51035;DHT22;37062;52.546;13.230;2023-02-07T00:46:22;-1.40;99.90
51035;DHT22;37062;52.546;13.230;2023-02-07T00:48:54;-1.50;99.90
51035;DHT22;37062;52.546;13.230;2023-02-07T00:51:23;-1.50;99.90
51035;DHT22;37062;52.546;13.230;2023-02-07T00:53:53;-1.50;99.90
51035;DHT22;37062;52.546;13.230;2023-02-07T00:56:25;-1.40;99.90
51035;DHT22;37062;52.546;13.230;2023-02-07T00:58:56;-1.40;99.90
51035;DHT22;37062;52.546;13.230;2023-02-07T01:01:25;-1.40;99.90
51035;DHT22;37062;52.546;13.230;2023-02-07T01:03:56;-1.40;99.90
51035;DHT22;37062;52.546;13.230;2023-02-07T01:06:25;-1.40;99.90
51035;DHT22;37062;52.546;13.230;2023-02-07T01:08:56;-1.40;99.90
51035;DHT22;37062;52.546;13.230;2023-02-07T01:11:27;-1.50;99.90
51035;DHT22;37062;52.546;13.230;2023-02-07T01:13:57;-1.50;99.90
51035;DHT22;37062;52.546;13.230;2023-02-07T01:16:27;-1.60;99.90
51035;DHT22;37062;52.546;13.230;2023-02-07T01:18:57;-1.60;99.90
51035;DHT22;37062;52.546;13.230;2023-02-07T01:21:28;-1.70;99.90
51035;DHT22;37062;52.546;13.230;2023-02-07T01:23:56;-1.80;99.90
51035;DHT22;37062;52.546;13.230;2023-02-07T01:26:25;-1.80;99.90
51035;DHT22;37062;52.546;13.230;2023-02-07T01:28:53;-1.80;99.90
51035;DHT22;37062;52.546;13.230;2023-02-07T01:31:22;-1.70;99.90
51035;DHT22;37062;52.546;13.230;2023-02-07T01:33:52;-1.70;99.90
51035;DHT22;37062;52.546;13.230;2023-02-07T01:36:23;-1.60;99.90
51035;DHT22;37062;52.546;13.230;2023-02-07T01:38:52;-1.60;99.90
51035;DHT22;37062;52.546;13.230;2023-02-07T01:41:21;-1.50;99.90
51035;DHT22;37062;52.546;13.230;2023-02-07T01:43:59;-1.50;99.90
51035;DHT22;37062;52.546;13.230;2023-02-07T01:46:28;-1.50;99.90
51035;DHT22;37062;52.546;13.230;2023-02-07T01:49:01;-1.50;99.90
51035;DHT22;37062;52.546;13.230;2023-02-07T01:51:32;-1.40;99.90
51035;DHT22;37062;52.546;13.230;2023-02-07T01:54:05;-1.40;99.90
51035;DHT22;37062;52.546;13.230;2023-02-07T01:56:35;-1.40;99.90
51035;DHT22;37062;52.546;13.230;2023-02-07T01:59:05;-1.50;99.90
51035;DHT22;37062;52.546;13.230;2023-02-07T02:01:34;-1.50;99.90
51035;DHT22;37062;52.546;13.230;2023-02-07T02:04:02;-1.60;99.90
51035;DHT22;37062;52.546;13.230;2023-02-07T02:06:34;-1.60;99.90
51035;DHT22;37062;52.546;13.230;2023-02-07T02:09:08;-1.70;99.90
51035;DHT22;37062;52.546;13.230;2023-02-07T02:14:37;-1.70;99.90
51035;DHT22;37062;52.546;13.230;2023-02-07T02:17:13;-1.70;99.90
51035;DHT22;37062;52.546;13.230;2023-02-07T02:20:05;-1.70;99.90
51035;DHT22;37062;52.546;13.230;2023-02-07T02:22:54;-1.70;99.90
51035;DHT22;37062;52.546;13.230;2023-02-07T02:35:09;-1.70;99.90
51035;DHT22;37062;52.546;13.230;2023-02-07T02:37:46;-1.70;99.90
51035;DHT22;37062;52.546;13.230;2023-02-07T02:40:24;-1.70;99.90
51035;DHT22;37062;52.546;13.230;2023-02-07T02:43:02;-1.80;99.90
51035;DHT22;37062;52.546;13.230;2023-02-07T02:45:33;-1.90;99.90
51035;DHT22;37062;52.546;13.230;2023-02-07T02:48:05;-1.90;99.90
51035;DHT22;37062;52.546;13.230;2023-02-07T02:50:37;-1.90;99.90
51035;DHT22;37062;52.546;13.230;2023-02-07T02:53:06;-2.00;99.90
51035;DHT22;37062;52.546;13.230;2023-02-07T02:55:55;-2.10;99.90
51035;DHT22;37062;52.546;13.230;2023-02-07T02:58:36;-2.20;99.90
51035;DHT22;37062;52.546;13.230;2023-02-07T03:01:13;-2.20;99.90
51035;DHT22;37062;52.546;13.230;2023-02-07T03:04:00;-2.20;99.90
51035;DHT22;37062;52.546;13.230;2023-02-07T03:06:36;-2.10;99.90
51035;DHT22;37062;52.546;13.230;2023-02-07T03:09:16;-2.10;99.90
51035;DHT22;37062;52.546;13.230;2023-02-07T03:11:55;-2.00;99.90
51035;DHT22;37062;52.546;13.230;2023-02-07T03:14:30;-2.00;99.90
51035;DHT22;37062;52.546;13.230;2023-02-07T03:17:08;-2.00;99.90
51035;DHT22;37062;52.546;13.230;2023-02-07T03:19:43;-1.90;99.90
51035;DHT22;37062;52.546;13.230;2023-02-07T03:22:17;-1.90;99.90
51035;DHT22;37062;52.546;13.230;2023-02-07T03:24:51;-1.90;99.90
51035;DHT22;37062;52.546;13.230;2023-02-07T03:27:23;-1.90;99.90
51035;DHT22;37062;52.546;13.230;2023-02-07T03:29:54;-1.90;99.90
51035;DHT22;37062;52.546;13.230;2023-02-07T03:32:29;-1.90;99.90
51035;DHT22;37062;52.546;13.230;2023-02-07T03:34:59;-1.90;99.90
51035;DHT22;37062;52.546;13.230;2023-02-07T03:37:35;-2.00;99.90
51035;DHT22;37062;52.546;13.230;2023-02-07T03:40:06;-2.00;99.90
51035;DHT22;37062;52.546;13.230;2023-02-07T03:42:38;-2.00;99.90
51035;DHT22;37062;52.546;13.230;2023-02-07T03:45:10;-2.10;99.90
51035;DHT22;37062;52.546;13.230;2023-02-07T03:47:39;-2.10;99.90
51035;DHT22;37062;52.546;13.230;2023-02-07T03:50:08;-2.20;99.90
51035;DHT22;37062;52.546;13.230;2023-02-07T03:52:38;-2.20;99.90
51035;DHT22;37062;52.546;13.230;2023-02-07T03:55:07;-2.30;99.90
51035;DHT22;37062;52.546;13.230;2023-02-07T03:57:35;-2.30;99.90
51035;DHT22;37062;52.546;13.230;2023-02-07T04:00:05;-2.40;99.90
51035;DHT22;37062;52.546;13.230;2023-02-07T04:02:39;-2.30;99.90
51035;DHT22;37062;52.546;13.230;2023-02-07T04:05:08;-2.40;99.90
51035;DHT22;37062;52.546;13.230;2023-02-07T04:07:37;-2.40;99.90
51035;DHT22;37062;52.546;13.230;2023-02-07T04:10:06;-2.30;99.90
51035;DHT22;37062;52.546;13.230;2023-02-07T04:12:34;-2.40;99.90
51035;DHT22;37062;52.546;13.230;2023-02-07T04:15:04;-2.30;99.90
51035;DHT22;37062;52.546;13.230;2023-02-07T04:17:32;-2.40;99.90
51035;DHT22;37062;52.546;13.230;2023-02-07T04:20:00;-2.40;99.90
51035;DHT22;37062;52.546;13.230;2023-02-07T04:22:28;-2.50;99.90
51035;DHT22;37062;52.546;13.230;2023-02-07T04:24:58;-2.40;99.90
51035;DHT22;37062;52.546;13.230;2023-02-07T04:27:26;-2.40;99.90
51035;DHT22;37062;52.546;13.230;2023-02-07T04:29:54;-2.50;99.90
51035;DHT22;37062;52.546;13.230;2023-02-07T04:32:23;-2.50;99.90
51035;DHT22;37062;52.546;13.230;2023-02-07T04:34:51;-2.50;99.90
51035;DHT22;37062;52.546;13.230;2023-02-07T04:37:19;-2.40;99.90
51035;DHT22;37062;52.546;13.230;2023-02-07T04:39:47;-2.40;99.90
51035;DHT22;37062;52.546;13.230;2023-02-07T04:42:17;-2.40;99.90
51035;DHT22;37062;52.546;13.230;2023-02-07T04:44:45;-2.40;99.90
51035;DHT22;37062;52.546;13.230;2023-02-07T04:47:13;-2.50;99.90
51035;DHT22;37062;52.546;13.230;2023-02-07T04:49:41;-2.50;99.90
51035;DHT22;37062;52.546;13.230;2023-02-07T04:52:09;-2.60;99.90
51035;DHT22;37062;52.546;13.230;2023-02-07T04:54:37;-2.70;99.90
51035;DHT22;37062;52.546;13.230;2023-02-07T04:57:05;-2.70;99.90
51035;DHT22;37062;52.546;13.230;2023-02-07T04:59:35;-2.70;99.90
51035;DHT22;37062;52.546;13.230;2023-02-07T05:02:03;-2.80;99.90
51035;DHT22;37062;52.546;13.230;2023-02-07T05:04:32;-2.80;99.90
51035;DHT22;37062;52.546;13.230;2023-02-07T05:07:00;-2.80;99.90
51035;DHT22;37062;52.546;13.230;2023-02-07T05:09:28;-2.90;99.90
51035;DHT22;37062;52.546;13.230;2023-02-07T05:11:56;-2.90;99.90
51035;DHT22;37062;52.546;13.230;2023-02-07T05:14:24;-3.00;99.90
51035;DHT22;37062;52.546;13.230;2023-02-07T05:16:54;-3.10;99.90
51035;DHT22;37062;52.546;13.230;2023-02-07T05:19:22;-3.10;99.90
51035;DHT22;37062;52.546;13.230;2023-02-07T05:21:50;-3.00;99.90
51035;DHT22;37062;52.546;13.230;2023-02-07T05:24:18;-3.00;99.90
51035;DHT22;37062;52.546;13.230;2023-02-07T05:26:47;-3.00;99.90
51035;DHT22;37062;52.546;13.230;2023-02-07T05:29:15;-3.00;99.90
51035;DHT22;37062;52.546;13.230;2023-02-07T05:31:43;-2.90;99.90
51035;DHT22;37062;52.546;13.230;2023-02-07T05:34:33;-2.90;99.90
51035;DHT22;37062;52.546;13.230;2023-02-07T05:37:01;-2.80;99.90
51035;DHT22;37062;52.546;13.230;2023-02-07T05:39:29;-2.70;99.90
51035;DHT22;37062;52.546;13.230;2023-02-07T05:41:57;-2.70;99.90
51035;DHT22;37062;52.546;13.230;2023-02-07T05:44:25;-2.70;99.90
51035;DHT22;37062;52.546;13.230;2023-02-07T05:46:53;-2.70;99.90
51035;DHT22;37062;52.546;13.230;2023-02-07T05:49:22;-2.70;99.90
51035;DHT22;37062;52.546;13.230;2023-02-07T05:51:51;-2.80;99.90
51035;DHT22;37062;52.546;13.230;2023-02-07T05:54:19;-2.80;99.90
51035;DHT22;37062;52.546;13.230;2023-02-07T05:56:47;-2.80;99.90
51035;DHT22;37062;52.546;13.230;2023-02-07T05:59:16;-2.80;99.90
51035;DHT22;37062;52.546;13.230;2023-02-07T06:01:44;-2.80;99.90
51035;DHT22;37062;52.546;13.230;2023-02-07T06:04:12;-2.80;99.90
51035;DHT22;37062;52.546;13.230;2023-02-07T06:06:40;-2.90;99.90
51035;DHT22;37062;52.546;13.230;2023-02-07T06:09:11;-2.90;99.90
51035;DHT22;37062;52.546;13.230;2023-02-07T06:11:40;-2.90;99.90
51035;DHT22;37062;52.546;13.230;2023-02-07T06:14:08;-2.90;99.90
51035;DHT22;37062;52.546;13.230;2023-02-07T06:16:36;-2.90;99.90
51035;DHT22;37062;52.546;13.230;2023-02-07T06:19:04;-2.90;99.90
51035;DHT22;37062;52.546;13.230;2023-02-07T06:21:33;-2.90;99.90
51035;DHT22;37062;52.546;13.230;2023-02-07T06:24:14;-2.90;99.90
51035;DHT22;37062;52.546;13.230;2023-02-07T06:26:43;-2.80;99.90
51035;DHT22;37062;52.546;13.230;2023-02-07T06:29:13;-2.80;99.90
51035;DHT22;37062;52.546;13.230;2023-02-07T06:31:41;-2.80;99.90
51035;DHT22;37062;52.546;13.230;2023-02-07T06:34:09;-2.80;99.90
51035;DHT22;37062;52.546;13.230;2023-02-07T06:36:38;-2.80;99.90
51035;DHT22;37062;52.546;13.230;2023-02-07T06:39:06;-2.70;99.90
51035;DHT22;37062;52.546;13.230;2023-02-07T06:41:35;-2.70;99.90
51035;DHT22;37062;52.546;13.230;2023-02-07T06:44:03;-2.70;99.90
51035;DHT22;37062;52.546;13.230;2023-02-07T06:46:32;-2.70;99.90
51035;DHT22;37062;52.546;13.230;2023-02-07T06:49:00;-2.70;99.90
51035;DHT22;37062;52.546;13.230;2023-02-07T06:51:28;-2.70;99.90
51035;DHT22;37062;52.546;13.230;2023-02-07T06:53:56;-2.70;99.90
51035;DHT22;37062;52.546;13.230;2023-02-07T06:56:25;-2.70;99.90
51035;DHT22;37062;52.546;13.230;2023-02-07T06:58:55;-2.70;99.90
51035;DHT22;37062;52.546;13.230;2023-02-07T07:01:23;-2.60;99.90
51035;DHT22;37062;52.546;13.230;2023-02-07T07:03:51;-2.50;99.90
51035;DHT22;37062;52.546;13.230;2023-02-07T07:06:20;-2.30;99.90
51035;DHT22;37062;52.546;13.230;2023-02-07T07:08:48;-2.10;99.90
51035;DHT22;37062;52.546;13.230;2023-02-07T07:11:17;-1.90;99.90
51035;DHT22;37062;52.546;13.230;2023-02-07T07:13:45;-1.70;99.90
51035;DHT22;37062;52.546;13.230;2023-02-07T07:16:15;-1.40;99.90
51035;DHT22;37062;52.546;13.230;2023-02-07T07:18:43;-1.00;99.90
51035;DHT22;37062;52.546;13.230;2023-02-07T07:21:12;-0.50;99.90
51035;DHT22;37062;52.546;13.230;2023-02-07T07:23:40;0.00;99.90
51035;DHT22;37062;52.546;13.230;2023-02-07T07:26:08;0.40;99.90
51035;DHT22;37062;52.546;13.230;2023-02-07T07:28:36;0.80;99.90
51035;DHT22;37062;52.546;13.230;2023-02-07T07:31:06;1.20;99.90
51035;DHT22;37062;52.546;13.230;2023-02-07T07:33:36;1.70;99.90
51035;DHT22;37062;52.546;13.230;2023-02-07T07:36:05;2.00;99.90
51035;DHT22;37062;52.546;13.230;2023-02-07T07:38:35;1.80;99.90
51035;DHT22;37062;52.546;13.230;2023-02-07T07:41:08;1.70;99.90
51035;DHT22;37062;52.546;13.230;2023-02-07T07:43:37;1.70;99.90
51035;DHT22;37062;52.546;13.230;2023-02-07T07:46:05;1.80;99.90
51035;DHT22;37062;52.546;13.230;2023-02-07T07:48:36;1.90;99.90
51035;DHT22;37062;52.546;13.230;2023-02-07T07:51:04;1.80;99.90
51035;DHT22;37062;52.546;13.230;2023-02-07T07:53:32;1.70;99.90
51035;DHT22;37062;52.546;13.230;2023-02-07T07:56:01;1.60;99.90
51035;DHT22;37062;52.546;13.230;2023-02-07T07:58:29;1.50;99.90
51035;DHT22;37062;52.546;13.230;2023-02-07T08:00:57;1.50;99.90
51035;DHT22;37062;52.546;13.230;2023-02-07T08:03:25;1.70;99.90
51035;DHT22;37062;52.546;13.230;2023-02-07T08:05:55;2.20;99.90
51035;DHT22;37062;52.546;13.230;2023-02-07T08:08:23;2.70;99.90
51035;DHT22;37062;52.546;13.230;2023-02-07T08:10:51;3.10;99.90
51035;DHT22;37062;52.546;13.230;2023-02-07T08:13:20;3.50;99.90
51035;DHT22;37062;52.546;13.230;2023-02-07T08:15:48;3.70;99.90
51035;DHT22;37062;52.546;13.230;2023-02-07T08:18:16;3.80;99.90
51035;DHT22;37062;52.546;13.230;2023-02-07T08:20:44;4.00;99.90
51035;DHT22;37062;52.546;13.230;2023-02-07T08:23:14;4.10;99.90
51035;DHT22;37062;52.546;13.230;2023-02-07T08:25:42;4.20;99.90
51035;DHT22;37062;52.546;13.230;2023-02-07T08:28:12;4.30;99.90
51035;DHT22;37062;52.546;13.230;2023-02-07T08:30:40;4.40;99.90
51035;DHT22;37062;52.546;13.230;2023-02-07T08:33:09;4.50;99.90
51035;DHT22;37062;52.546;13.230;2023-02-07T08:35:37;4.60;99.90
51035;DHT22;37062;52.546;13.230;2023-02-07T08:38:05;4.50;99.90
51035;DHT22;37062;52.546;13.230;2023-02-07T08:40:35;4.40;99.90
51035;DHT22;37062;52.546;13.230;2023-02-07T08:43:04;4.30;99.90
51035;DHT22;37062;52.546;13.230;2023-02-07T08:45:38;4.20;99.90
51035;DHT22;37062;52.546;13.230;2023-02-07T08:48:07;4.30;99.90
51035;DHT22;37062;52.546;13.230;2023-02-07T08:50:35;4.30;99.90
51035;DHT22;37062;52.546;13.230;2023-02-07T08:53:04;4.30;99.90
51035;DHT22;37062;52.546;13.230;2023-02-07T08:55:33;4.40;99.90
51035;DHT22;37062;52.546;13.230;2023-02-07T08:58:01;4.40;99.90
51035;DHT22;37062;52.546;13.230;2023-02-07T09:00:29;4.50;99.90
51035;DHT22;37062;52.546;13.230;2023-02-07T09:02:57;4.50;99.90
51035;DHT22;37062;52.546;13.230;2023-02-07T09:05:26;4.40;99.90
51035;DHT22;37062;52.546;13.230;2023-02-07T09:07:54;4.40;99.90
51035;DHT22;37062;52.546;13.230;2023-02-07T09:10:22;4.40;99.90
51035;DHT22;37062;52.546;13.230;2023-02-07T09:12:51;4.50;99.90
51035;DHT22;37062;52.546;13.230;2023-02-07T09:15:19;4.50;99.90
51035;DHT22;37062;52.546;13.230;2023-02-07T09:17:48;4.50;99.90
51035;DHT22;37062;52.546;13.230;2023-02-07T09:20:16;4.60;99.90
51035;DHT22;37062;52.546;13.230;2023-02-07T09:22:44;4.70;99.90
51035;DHT22;37062;52.546;13.230;2023-02-07T09:25:30;4.80;99.90
51035;DHT22;37062;52.546;13.230;2023-02-07T09:27:59;4.80;99.90
51035;DHT22;37062;52.546;13.230;2023-02-07T09:30:27;4.60;99.90
51035;DHT22;37062;52.546;13.230;2023-02-07T09:32:56;4.40;99.90
51035;DHT22;37062;52.546;13.230;2023-02-07T09:35:25;4.50;99.90
51035;DHT22;37062;52.546;13.230;2023-02-07T09:37:53;4.60;99.90
51035;DHT22;37062;52.546;13.230;2023-02-07T09:40:22;4.70;99.90
51035;DHT22;37062;52.546;13.230;2023-02-07T09:42:55;4.80;99.90
51035;DHT22;37062;52.546;13.230;2023-02-07T09:45:28;4.90;99.90
51035;DHT22;37062;52.546;13.230;2023-02-07T09:48:01;5.00;99.90
51035;DHT22;37062;52.546;13.230;2023-02-07T09:50:34;5.20;99.90
51035;DHT22;37062;52.546;13.230;2023-02-07T09:53:07;5.30;99.90
51035;DHT22;37062;52.546;13.230;2023-02-07T09:55:43;5.40;99.90
51035;DHT22;37062;52.546;13.230;2023-02-07T09:58:15;5.50;99.90
51035;DHT22;37062;52.546;13.230;2023-02-07T10:00:59;5.50;99.90
51035;DHT22;37062;52.546;13.230;2023-02-07T10:03:27;5.60;99.90
51035;DHT22;37062;52.546;13.230;2023-02-07T10:05:59;5.70;99.90
51035;DHT22;37062;52.546;13.230;2023-02-07T10:08:44;5.80;99.90
51035;DHT22;37062;52.546;13.230;2023-02-07T10:11:20;5.60;99.90
51035;DHT22;37062;52.546;13.230;2023-02-07T10:14:07;5.60;99.90
51035;DHT22;37062;52.546;13.230;2023-02-07T10:17:01;5.50;99.90
51035;DHT22;37062;52.546;13.230;2023-02-07T10:19:41;5.40;99.90
51035;DHT22;37062;52.546;13.230;2023-02-07T10:22:21;5.30;99.90
51035;DHT22;37062;52.546;13.230;2023-02-07T10:25:18;5.30;99.90
51035;DHT22;37062;52.546;13.230;2023-02-07T10:27:55;5.40;99.90
51035;DHT22;37062;52.546;13.230;2023-02-07T10:30:26;5.50;99.90
51035;DHT22;37062;52.546;13.230;2023-02-07T10:33:00;5.50;99.90
51035;DHT22;37062;52.546;13.230;2023-02-07T10:35:33;5.50;99.90
51035;DHT22;37062;52.546;13.230;2023-02-07T10:38:03;5.50;99.90
51035;DHT22;37062;52.546;13.230;2023-02-07T10:40:36;5.40;99.90
51035;DHT22;37062;52.546;13.230;2023-02-07T10:43:11;5.40;99.90
51035;DHT22;37062;52.546;13.230;2023-02-07T10:45:44;5.30;99.90
51035;DHT22;37062;52.546;13.230;2023-02-07T10:48:21;5.30;99.90
51035;DHT22;37062;52.546;13.230;2023-02-07T10:50:50;5.40;99.90
51035;DHT22;37062;52.546;13.230;2023-02-07T10:53:43;5.40;99.90
51035;DHT22;37062;52.546;13.230;2023-02-07T10:56:23;5.40;99.90
51035;DHT22;37062;52.546;13.230;2023-02-07T10:58:55;5.30;99.90
51035;DHT22;37062;52.546;13.230;2023-02-07T11:01:25;5.20;99.90
51035;DHT22;37062;52.546;13.230;2023-02-07T11:03:55;5.20;99.90
51035;DHT22;37062;52.546;13.230;2023-02-07T11:06:25;5.20;99.90
51035;DHT22;37062;52.546;13.230;2023-02-07T11:09:12;5.20;99.90
51035;DHT22;37062;52.546;13.230;2023-02-07T11:11:47;5.00;99.90
51035;DHT22;37062;52.546;13.230;2023-02-07T11:14:18;5.00;99.90
51035;DHT22;37062;52.546;13.230;2023-02-07T11:16:52;5.00;99.90
51035;DHT22;37062;52.546;13.230;2023-02-07T11:19:24;5.00;99.90
51035;DHT22;37062;52.546;13.230;2023-02-07T11:22:04;5.00;99.90
51035;DHT22;37062;52.546;13.230;2023-02-07T11:24:34;5.10;99.90
51035;DHT22;37062;52.546;13.230;2023-02-07T11:27:06;5.10;99.90
51035;DHT22;37062;52.546;13.230;2023-02-07T11:29:45;5.20;99.90
51035;DHT22;37062;52.546;13.230;2023-02-07T11:32:14;5.20;99.90
51035;DHT22;37062;52.546;13.230;2023-02-07T11:34:47;5.20;99.90
51035;DHT22;37062;52.546;13.230;2023-02-07T11:37:25;5.20;99.90
51035;DHT22;37062;52.546;13.230;2023-02-07T11:39:55;5.10;99.90
51035;DHT22;37062;52.546;13.230;2023-02-07T11:42:25;5.10;99.90
51035;DHT22;37062;52.546;13.230;2023-02-07T11:45:03;5.10;99.90
51035;DHT22;37062;52.546;13.230;2023-02-07T11:47:33;5.00;99.90
51035;DHT22;37062;52.546;13.230;2023-02-07T11:50:05;4.90;99.90
51035;DHT22;37062;52.546;13.230;2023-02-07T11:52:36;5.00;99.90
51035;DHT22;37062;52.546;13.230;2023-02-07T11:55:08;5.10;99.90
51035;DHT22;37062;52.546;13.230;2023-02-07T11:57:39;5.10;99.90
51035;DHT22;37062;52.546;13.230;2023-02-07T12:00:17;5.10;99.90
51035;DHT22;37062;52.546;13.230;2023-02-07T12:02:50;5.10;99.90
51035;DHT22;37062;52.546;13.230;2023-02-07T12:05:22;5.10;99.90
51035;DHT22;37062;52.546;13.230;2023-02-07T12:07:57;5.10;99.90
51035;DHT22;37062;52.546;13.230;2023-02-07T12:10:30;5.10;99.90
51035;DHT22;37062;52.546;13.230;2023-02-07T12:13:02;5.10;99.90
51035;DHT22;37062;52.546;13.230;2023-02-07T12:15:33;5.10;99.90
51035;DHT22;37062;52.546;13.230;2023-02-07T12:18:09;5.10;99.90
51035;DHT22;37062;52.546;13.230;2023-02-07T12:20:45;5.20;99.90
51035;DHT22;37062;52.546;13.230;2023-02-07T12:23:20;5.20;99.90
51035;DHT22;37062;52.546;13.230;2023-02-07T12:26:16;5.30;99.90
51035;DHT22;37062;52.546;13.230;2023-02-07T12:28:52;5.20;99.90
51035;DHT22;37062;52.546;13.230;2023-02-07T12:31:46;5.20;99.90
51035;DHT22;37062;52.546;13.230;2023-02-07T12:34:21;5.20;99.90
51035;DHT22;37062;52.546;13.230;2023-02-07T12:36:55;5.30;99.90
51035;DHT22;37062;52.546;13.230;2023-02-07T12:39:30;5.30;99.90
51035;DHT22;37062;52.546;13.230;2023-02-07T12:42:12;5.30;99.90
51035;DHT22;37062;52.546;13.230;2023-02-07T12:44:48;5.30;99.90
51035;DHT22;37062;52.546;13.230;2023-02-07T12:47:25;5.10;99.90
51035;DHT22;37062;52.546;13.230;2023-02-07T12:50:11;5.10;99.90
51035;DHT22;37062;52.546;13.230;2023-02-07T12:52:52;5.20;99.90
51035;DHT22;37062;52.546;13.230;2023-02-07T12:55:33;5.30;99.90
51035;DHT22;37062;52.546;13.230;2023-02-07T12:58:15;5.30;99.90
51035;DHT22;37062;52.546;13.230;2023-02-07T13:00:54;5.40;99.90
51035;DHT22;37062;52.546;13.230;2023-02-07T13:06:24;5.40;99.90
51035;DHT22;37062;52.546;13.230;2023-02-07T13:09:04;5.40;99.90
51035;DHT22;37062;52.546;13.230;2023-02-07T13:11:40;5.50;99.90
51035;DHT22;37062;52.546;13.230;2023-02-07T13:14:21;5.50;99.90
51035;DHT22;37062;52.546;13.230;2023-02-07T13:17:03;5.50;99.90
51035;DHT22;37062;52.546;13.230;2023-02-07T13:19:38;5.50;99.90
51035;DHT22;37062;52.546;13.230;2023-02-07T13:22:11;5.50;99.90
51035;DHT22;37062;52.546;13.230;2023-02-07T13:24:45;5.50;99.90
51035;DHT22;37062;52.546;13.230;2023-02-07T13:27:18;5.60;99.90
51035;DHT22;37062;52.546;13.230;2023-02-07T13:29:48;5.60;99.90
51035;DHT22;37062;52.546;13.230;2023-02-07T13:32:19;5.60;99.90
51035;DHT22;37062;52.546;13.230;2023-02-07T13:34:52;5.60;99.90
51035;DHT22;37062;52.546;13.230;2023-02-07T13:37:29;5.60;99.90
51035;DHT22;37062;52.546;13.230;2023-02-07T13:40:09;5.60;99.90
51035;DHT22;37062;52.546;13.230;2023-02-07T13:42:50;5.60;99.90
51035;DHT22;37062;52.546;13.230;2023-02-07T13:45:26;5.60;99.90
51035;DHT22;37062;52.546;13.230;2023-02-07T13:48:02;5.50;99.90
51035;DHT22;37062;52.546;13.230;2023-02-07T13:50:38;5.50;99.90
51035;DHT22;37062;52.546;13.230;2023-02-07T13:53:20;5.60;99.90
51035;DHT22;37062;52.546;13.230;2023-02-07T13:55:51;5.50;99.90
51035;DHT22;37062;52.546;13.230;2023-02-07T13:58:50;5.50;99.90
51035;DHT22;37062;52.546;13.230;2023-02-07T14:01:49;5.40;99.90
51035;DHT22;37062;52.546;13.230;2023-02-07T14:04:19;5.30;99.90
51035;DHT22;37062;52.546;13.230;2023-02-07T14:06:59;5.30;99.90
51035;DHT22;37062;52.546;13.230;2023-02-07T14:09:32;5.30;99.90
51035;DHT22;37062;52.546;13.230;2023-02-07T14:12:04;5.30;99.90
51035;DHT22;37062;52.546;13.230;2023-02-07T14:14:34;5.30;99.90
51035;DHT22;37062;52.546;13.230;2023-02-07T14:17:04;5.30;99.90
51035;DHT22;37062;52.546;13.230;2023-02-07T14:19:52;5.30;99.90
51035;DHT22;37062;52.546;13.230;2023-02-07T14:22:24;5.30;99.90
51035;DHT22;37062;52.546;13.230;2023-02-07T14:25:17;5.30;99.90
51035;DHT22;37062;52.546;13.230;2023-02-07T14:28:07;5.20;99.90
51035;DHT22;37062;52.546;13.230;2023-02-07T14:30:57;5.10;99.90
51035;DHT22;37062;52.546;13.230;2023-02-07T14:33:31;5.10;99.90
51035;DHT22;37062;52.546;13.230;2023-02-07T14:36:18;5.10;99.90
51035;DHT22;37062;52.546;13.230;2023-02-07T14:39:01;5.10;99.90
51035;DHT22;37062;52.546;13.230;2023-02-07T14:41:34;5.10;99.90
51035;DHT22;37062;52.546;13.230;2023-02-07T14:44:06;5.00;99.90
51035;DHT22;37062;52.546;13.230;2023-02-07T14:46:38;5.10;99.90
51035;DHT22;37062;52.546;13.230;2023-02-07T14:49:13;5.10;99.90
51035;DHT22;37062;52.546;13.230;2023-02-07T14:51:44;5.10;99.90
51035;DHT22;37062;52.546;13.230;2023-02-07T14:54:18;5.20;99.90
51035;DHT22;37062;52.546;13.230;2023-02-07T14:56:55;5.20;99.90
51035;DHT22;37062;52.546;13.230;2023-02-07T14:59:34;5.10;99.90
51035;DHT22;37062;52.546;13.230;2023-02-07T15:02:28;5.10;99.90
51035;DHT22;37062;52.546;13.230;2023-02-07T15:04:57;5.20;99.90
51035;DHT22;37062;52.546;13.230;2023-02-07T15:07:25;5.20;99.90
51035;DHT22;37062;52.546;13.230;2023-02-07T15:09:53;5.20;99.90
51035;DHT22;37062;52.546;13.230;2023-02-07T15:12:24;5.20;99.90
51035;DHT22;37062;52.546;13.230;2023-02-07T15:14:55;5.20;99.90
51035;DHT22;37062;52.546;13.230;2023-02-07T15:17:25;5.20;99.90
51035;DHT22;37062;52.546;13.230;2023-02-07T15:20:14;5.20;99.90
51035;DHT22;37062;52.546;13.230;2023-02-07T15:22:45;5.10;99.90
51035;DHT22;37062;52.546;13.230;2023-02-07T15:25:14;5.10;99.90
51035;DHT22;37062;52.546;13.230;2023-02-07T15:27:57;5.10;99.90
51035;DHT22;37062;52.546;13.230;2023-02-07T15:30:28;5.10;99.90
51035;DHT22;37062;52.546;13.230;2023-02-07T15:32:57;5.10;99.90
51035;DHT22;37062;52.546;13.230;2023-02-07T15:35:27;5.00;99.90
51035;DHT22;37062;52.546;13.230;2023-02-07T15:38:14;5.00;99.90
51035;DHT22;37062;52.546;13.230;2023-02-07T15:40:43;5.00;99.90
51035;DHT22;37062;52.546;13.230;2023-02-07T15:43:29;4.90;99.90
51035;DHT22;37062;52.546;13.230;2023-02-07T15:46:05;4.90;99.90
51035;DHT22;37062;52.546;13.230;2023-02-07T15:48:45;4.80;99.90
51035;DHT22;37062;52.546;13.230;2023-02-07T15:51:15;4.60;99.90
51035;DHT22;37062;52.546;13.230;2023-02-07T15:53:48;4.60;99.90
51035;DHT22;37062;52.546;13.230;2023-02-07T15:56:18;4.60;99.90
51035;DHT22;37062;52.546;13.230;2023-02-07T15:58:47;4.60;99.90
51035;DHT22;37062;52.546;13.230;2023-02-07T16:01:22;4.50;99.90
51035;DHT22;37062;52.546;13.230;2023-02-07T16:03:54;4.50;99.90
51035;DHT22;37062;52.546;13.230;2023-02-07T16:06:25;4.40;99.90
51035;DHT22;37062;52.546;13.230;2023-02-07T16:08:55;4.40;99.90
51035;DHT22;37062;52.546;13.230;2023-02-07T16:11:38;4.40;99.90
51035;DHT22;37062;52.546;13.230;2023-02-07T16:14:17;4.30;99.90